Time;durP1;ratioP1;P1;durP2;ratioP2;P2;SDS_P1;SDS_P2;PMS_P1;PMS_P2;Temp;Humidity;BMP_temperature;BMP_pressure;BME280_temperature;BME280_humidity;BME280_pressure;Samples;Min_cycle;Max_cycle;Signal;HPM_P1;HPM_P2
2021/07/14 00:00:19;;;;;;;9.07;7.72;;;;;;;17.68;93.84;100235.50;694019;28;4789;-56
2021/07/14 00:00:39;;;;;;;8.90;7.63;;;;;;;17.64;93.76;100236.56;693604;28;1829;-56
2021/07/14 00:01:00;;;;;;;9.43;7.63;;;;;;;17.67;93.80;100240.84;693129;28;1801;-53
2021/07/14 00:01:24;;;;;;;9.07;7.23;;;;;;;17.69;93.96;100244.28;694590;28;1523;-54
2021/07/14 00:01:44;;;;;;;8.50;7.60;;;;;;;17.66;93.71;100236.47;694826;28;1441;-51
2021/07/14 00:02:05;;;;;;;8.35;7.43;;;;;;;17.69;93.64;100245.16;693514;28;4598;-52
2021/07/14 00:02:25;;;;;;;8.90;7.73;;;;;;;17.73;93.64;100245.03;691392;28;1622;-54
2021/07/14 00:02:47;;;;;;;9.43;7.60;;;;;;;17.73;93.35;100240.59;693669;28;1471;-54
2021/07/14 00:03:07;;;;;;;10.00;7.50;;;;;;;17.74;93.25;100246.75;694965;28;931;-51
2021/07/14 00:03:28;;;;;;;9.70;7.97;;;;;;;17.83;93.26;100246.34;692370;28;1297;-53
2021/07/14 00:03:48;;;;;;;8.77;7.50;;;;;;;17.90;92.54;100252.25;692067;28;1698;-53
2021/07/14 00:04:08;;;;;;;8.37;7.57;;;;;;;17.91;92.42;100233.72;690505;28;1157;-52
2021/07/14 00:04:29;;;;;;;9.03;7.40;;;;;;;17.91;91.97;100239.00;692347;28;3966;-53
2021/07/14 00:04:50;;;;;;;8.70;6.55;;;;;;;17.90;91.92;100242.53;691657;28;4605;-51
2021/07/14 00:05:16;;;;;;;8.55;6.78;;;;;;;17.91;92.07;100243.41;690467;28;1978;-54
2021/07/14 00:05:38;;;;;;;9.30;6.93;;;;;;;17.90;91.86;100237.22;691367;28;1450;-53
2021/07/14 00:05:58;;;;;;;8.75;6.82;;;;;;;17.92;91.77;100242.53;691512;28;1512;-54
2021/07/14 00:06:18;;;;;;;7.83;6.60;;;;;;;17.89;92.00;100238.19;692844;28;1557;-52
2021/07/14 00:06:39;;;;;;;7.67;6.37;;;;;;;17.89;92.04;100240.81;693861;28;1720;-53
2021/07/14 00:06:59;;;;;;;9.18;6.45;;;;;;;17.91;91.68;100235.47;694260;28;1684;-52
2021/07/14 00:07:20;;;;;;;8.33;6.30;;;;;;;17.89;91.95;100240.81;695199;28;816;-53
2021/07/14 00:07:41;;;;;;;9.40;6.82;;;;;;;17.87;92.10;100238.25;695162;28;930;-53
2021/07/14 00:08:01;;;;;;;9.95;7.10;;;;;;;17.87;92.17;100237.38;694432;28;4550;-53
2021/07/14 00:08:22;;;;;;;8.87;6.90;;;;;;;17.84;92.10;100233.06;695210;28;1029;-53
2021/07/14 00:08:42;;;;;;;8.63;6.95;;;;;;;17.81;92.39;100243.78;694819;28;1611;-55
2021/07/14 00:09:09;;;;;;;8.47;6.73;;;;;;;17.79;92.26;100237.72;694430;28;4544;-51
2021/07/14 00:09:30;;;;;;;7.45;6.65;;;;;;;17.77;92.26;100241.34;693936;28;1735;-54
2021/07/14 00:09:50;;;;;;;8.20;6.43;;;;;;;17.73;92.25;100245.88;693779;28;1810;-53
2021/07/14 00:10:33;;;;;;;8.40;6.50;;;;;;;17.67;92.58;100236.41;694419;28;1622;-55
2021/07/14 00:10:53;;;;;;;8.02;7.20;;;;;;;17.55;93.06;100239.56;693413;28;4554;-56
2021/07/14 00:11:13;;;;;;;7.97;6.90;;;;;;;17.55;93.37;100234.28;694619;28;1959;-53
2021/07/14 00:11:40;;;;;;;9.40;7.03;;;;;;;17.56;93.36;100228.06;695288;28;1183;-51
2021/07/14 00:12:04;;;;;;;9.15;7.30;;;;;;;17.49;93.71;100231.91;694275;28;1576;-54
2021/07/14 00:12:26;;;;;;;7.97;7.05;;;;;;;17.48;93.52;100231.00;694562;28;991;-54
2021/07/14 00:12:55;;;;;;;7.95;6.78;;;;;;;17.49;93.73;100226.59;694121;28;830;-50
2021/07/14 00:13:56;;;;;;;9.63;7.37;;;;;;;17.43;93.93;100232.13;694187;28;4547;-54
2021/07/14 00:17:47;;;;;;;7.60;6.68;;;;;;;17.47;93.59;100231.06;692566;28;816;-53
2021/07/14 00:22:09;;;;;;;11.00;6.90;;;;;;;17.16;95.04;100242.88;695018;28;1000;-53
2021/07/14 00:22:30;;;;;;;9.38;6.75;;;;;;;17.13;95.20;100245.63;693388;28;4234;-54
2021/07/14 00:22:50;;;;;;;9.30;7.13;;;;;;;17.11;95.30;100250.09;692287;28;4564;-56
2021/07/14 00:23:11;;;;;;;7.67;6.90;;;;;;;17.09;95.51;100247.53;694454;28;1822;-52
2021/07/14 00:23:32;;;;;;;8.25;7.05;;;;;;;17.07;95.74;100237.94;695000;28;1783;-52
2021/07/14 00:23:52;;;;;;;9.37;7.23;;;;;;;17.05;95.79;100240.63;695157;28;1391;-53
2021/07/14 00:24:13;;;;;;;8.93;6.88;;;;;;;17.08;95.64;100239.66;694481;28;1494;-52
2021/07/14 00:24:33;;;;;;;9.15;7.00;;;;;;;17.11;95.82;100240.41;695418;28;1562;-52
2021/07/14 00:24:53;;;;;;;11.77;7.53;;;;;;;17.10;95.84;100240.44;694390;28;1015;-55
2021/07/14 00:25:14;;;;;;;10.27;6.97;;;;;;;17.09;95.91;100236.13;695473;28;883;-53
2021/07/14 00:25:34;;;;;;;9.38;6.93;;;;;;;17.09;96.08;100236.13;694862;28;2881;-53
2021/07/14 00:25:55;;;;;;;10.03;7.30;;;;;;;17.08;95.80;100240.50;694248;28;4599;-55
2021/07/14 00:26:15;;;;;;;8.27;7.30;;;;;;;17.07;95.84;100235.28;695504;28;1866;-52
2021/07/14 00:26:35;;;;;;;8.30;7.07;;;;;;;17.09;95.77;100238.75;695199;28;3027;-51
2021/07/14 00:26:56;;;;;;;8.13;7.28;;;;;;;17.08;95.70;100231.75;694225;28;5085;-51
2021/07/14 00:27:16;;;;;;;8.03;7.23;;;;;;;17.08;95.78;100234.38;693743;28;1784;-54
2021/07/14 00:27:40;;;;;;;8.50;7.33;;;;;;;17.10;95.38;100235.16;694924;28;1861;-51
2021/07/14 00:28:00;;;;;;;8.00;6.70;;;;;;;17.10;95.48;100236.06;694814;28;1629;-55
2021/07/14 00:28:21;;;;;;;8.37;6.90;;;;;;;17.11;95.57;100236.91;694948;28;1367;-54
2021/07/14 00:28:47;;;;;;;9.00;6.80;;;;;;;17.12;95.28;100233.34;695366;28;1782;-55
2021/07/14 00:29:12;;;;;;;8.00;6.55;;;;;;;17.14;95.15;100231.50;695004;28;4640;-52
2021/07/14 00:29:37;;;;;;;7.75;6.20;;;;;;;17.14;95.05;100234.13;693938;28;1465;-51
2021/07/14 00:30:00;;;;;;;8.55;6.45;;;;;;;17.12;95.08;100234.19;694313;28;980;-53
2021/07/14 00:30:25;;;;;;;7.32;6.20;;;;;;;17.10;95.35;100236.06;696022;28;1212;-54
2021/07/14 00:30:52;;;;;;;8.70;6.70;;;;;;;17.09;95.24;100223.75;693614;28;914;-51
2021/07/14 00:31:14;;;;;;;7.25;6.28;;;;;;;17.11;95.11;100226.34;694647;28;4474;-52
2021/07/14 00:31:35;;;;;;;6.93;6.13;;;;;;;17.12;95.21;100223.63;693807;28;2024;-56
2021/07/14 00:31:55;;;;;;;8.15;6.60;;;;;;;17.11;95.47;100221.06;693359;28;4547;-54
2021/07/14 00:32:16;;;;;;;8.50;6.70;;;;;;;17.10;95.64;100229.88;694629;28;1606;-54
2021/07/14 00:32:37;;;;;;;8.10;6.88;;;;;;;17.08;95.25;100229.09;693275;28;1412;-54
2021/07/14 00:32:57;;;;;;;7.60;6.60;;;;;;;17.06;95.60;100229.16;693455;28;1757;-54
2021/07/14 00:33:18;;;;;;;8.47;6.63;;;;;;;17.03;95.67;100231.94;693126;28;1626;-55
2021/07/14 00:33:38;;;;;;;8.20;6.75;;;;;;;17.03;96.08;100226.66;693840;28;962;-52
2021/07/14 00:33:58;;;;;;;8.47;6.93;;;;;;;17.02;95.73;100228.41;694685;28;1792;-52
2021/07/14 00:34:19;;;;;;;8.90;6.60;;;;;;;17.01;96.05;100220.56;695217;28;1439;-55
2021/07/14 00:34:39;;;;;;;8.95;6.60;;;;;;;16.99;96.11;100228.53;693337;28;1977;-54
2021/07/14 00:35:00;;;;;;;8.17;6.53;;;;;;;16.98;96.03;100226.81;693967;28;4546;-54
2021/07/14 00:35:20;;;;;;;9.98;6.90;;;;;;;16.99;95.91;100227.69;694616;28;4089;-55
2021/07/14 00:35:41;;;;;;;8.82;6.50;;;;;;;17.00;95.82;100222.34;694142;28;4433;-53
2021/07/14 00:36:01;;;;;;;7.17;6.47;;;;;;;17.02;95.96;100217.84;693708;28;1884;-52
2021/07/14 00:36:22;;;;;;;7.07;6.03;;;;;;;17.07;95.69;100219.44;693622;28;1998;-56
2021/07/14 00:36:42;;;;;;;7.27;6.00;;;;;;;17.11;95.51;100219.28;694491;28;1822;-53
2021/07/14 00:37:03;;;;;;;7.43;5.97;;;;;;;17.15;95.51;100214.72;692997;28;1549;-55
2021/07/14 00:37:23;;;;;;;6.78;5.60;;;;;;;17.17;95.44;100212.91;694144;28;1725;-53
2021/07/14 00:37:44;;;;;;;8.03;6.33;;;;;;;17.17;95.39;100215.53;696325;28;1415;-53
2021/07/14 00:38:04;;;;;;;8.95;6.53;;;;;;;17.16;95.27;100214.66;695841;28;4410;-50
2021/07/14 00:38:25;;;;;;;8.40;6.15;;;;;;;17.17;95.09;100211.13;697107;28;931;-55
2021/07/14 00:38:45;;;;;;;9.53;6.60;;;;;;;17.15;95.33;100212.09;697025;28;1459;-55
2021/07/14 00:39:05;;;;;;;8.95;6.47;;;;;;;17.15;95.33;100207.66;697026;28;1229;-53
2021/07/14 00:39:26;;;;;;;7.00;5.80;;;;;;;17.18;95.00;100211.97;697302;28;1124;-55
2021/07/14 00:39:55;;;;;;;6.67;5.50;;;;;;;17.23;94.76;100206.53;694265;28;2908;-55
2021/07/14 00:40:15;;;;;;;6.97;5.20;;;;;;;17.28;94.61;100208.06;693363;28;4581;-56
2021/07/14 00:40:35;;;;;;;6.82;5.40;;;;;;;17.30;94.24;100200.91;693856;28;1835;-54
2021/07/14 00:40:56;;;;;;;8.17;5.40;;;;;;;17.34;94.26;100199.88;693037;28;5329;-53
2021/07/14 00:41:17;;;;;;;7.63;5.30;;;;;;;17.36;93.92;100203.31;693577;28;1729;-52
2021/07/14 00:41:37;;;;;;;8.95;5.60;;;;;;;17.35;94.06;100206.03;693775;28;1899;-54
2021/07/14 00:41:58;;;;;;;7.87;5.53;;;;;;;17.27;94.38;100203.69;694844;28;1463;-50
2021/07/14 00:42:18;;;;;;;6.47;5.65;;;;;;;17.19;94.40;100201.34;695834;28;1110;-51
2021/07/14 00:42:39;;;;;;;6.83;5.63;;;;;;;17.16;94.83;100208.53;695853;28;836;-52
2021/07/14 00:43:00;;;;;;;7.43;5.78;;;;;;;17.14;95.05;100194.50;696055;28;1271;-53
2021/07/14 00:43:20;;;;;;;9.05;6.07;;;;;;;17.14;95.01;100211.25;696161;28;1673;-51
2021/07/14 00:43:41;;;;;;;8.47;6.10;;;;;;;17.10;95.05;100203.47;695752;28;884;-55
2021/07/14 00:44:01;;;;;;;8.05;6.10;;;;;;;17.08;95.07;100203.53;694146;28;4386;-54
2021/07/14 00:44:22;;;;;;;8.23;6.47;;;;;;;17.07;95.36;100214.16;694651;28;4154;-51
2021/07/14 00:44:42;;;;;;;7.47;6.40;;;;;;;17.08;94.94;100211.47;694777;28;4791;-54
2021/07/14 00:45:04;;;;;;;6.87;6.17;;;;;;;17.08;95.35;100213.25;692793;28;1772;-55
2021/07/14 00:45:25;;;;;;;8.55;6.45;;;;;;;17.05;95.60;100216.88;693829;28;1594;-54
2021/07/14 00:45:45;;;;;;;9.27;6.50;;;;;;;17.06;95.49;100217.72;694274;28;1592;-53
2021/07/14 00:46:15;;;;;;;8.88;6.70;;;;;;;17.04;95.58;100219.56;692882;28;1488;-53
2021/07/14 00:46:37;;;;;;;7.72;6.57;;;;;;;17.02;95.58;100217.84;693708;28;1533;-54
2021/07/14 00:47:01;;;;;;;7.50;6.68;;;;;;;17.01;95.53;100221.41;693852;28;4360;-55
2021/07/14 00:47:34;;;;;;;7.70;6.57;;;;;;;16.98;95.92;100224.16;694426;28;903;-51
2021/07/14 00:47:57;;;;;;;8.43;6.78;;;;;;;16.97;95.97;100226.88;694304;28;1216;-53
2021/07/14 00:48:24;;;;;;;9.57;6.53;;;;;;;16.93;96.04;100226.13;694021;28;1929;-53
2021/07/14 00:48:46;;;;;;;8.00;6.55;;;;;;;16.90;96.05;100218.31;693641;28;3140;-52
2021/07/14 00:49:07;;;;;;;9.35;6.68;;;;;;;16.91;96.16;100224.47;694119;28;4285;-52
2021/07/14 00:49:30;;;;;;;9.30;6.82;;;;;;;16.90;96.37;100225.38;693952;28;1735;-52
2021/07/14 00:49:50;;;;;;;9.98;7.18;;;;;;;16.90;96.37;100228.88;692250;28;4441;-52
2021/07/14 00:50:11;;;;;;;8.50;6.90;;;;;;;16.89;96.36;100226.28;694448;28;1643;-53
2021/07/14 00:50:33;;;;;;;9.40;7.40;;;;;;;16.88;96.54;100235.97;693888;28;1177;-55
2021/07/14 00:50:53;;;;;;;9.38;7.22;;;;;;;16.87;96.56;100230.75;694040;28;1683;-51
2021/07/14 00:51:15;;;;;;;8.67;7.10;;;;;;;16.88;96.52;100230.69;694712;28;1537;-55
2021/07/14 00:51:35;;;;;;;9.60;7.50;;;;;;;16.88;96.62;100229.81;693717;28;1563;-55
2021/07/14 00:51:56;;;;;;;10.03;7.53;;;;;;;16.87;96.86;100231.59;693756;28;1944;-52
2021/07/14 00:52:17;;;;;;;8.98;7.60;;;;;;;16.87;96.68;100236.03;694369;28;1631;-54
2021/07/14 00:52:37;;;;;;;10.95;7.70;;;;;;;16.87;96.87;100228.13;695031;28;1043;-54
2021/07/14 00:52:58;;;;;;;9.77;7.70;;;;;;;16.86;96.84;100227.25;693339;28;5389;-52
2021/07/14 00:53:19;;;;;;;10.77;7.70;;;;;;;16.87;96.85;100228.13;693617;28;4062;-52
2021/07/14 00:53:41;;;;;;;9.98;7.40;;;;;;;16.87;96.54;100228.97;693881;28;4403;-52
2021/07/14 00:54:01;;;;;;;8.57;6.90;;;;;;;16.89;96.54;100227.19;692697;28;1948;-55
2021/07/14 00:54:22;;;;;;;9.17;7.00;;;;;;;16.90;96.64;100228.88;694528;28;1938;-55
2021/07/14 00:54:44;;;;;;;11.50;7.15;;;;;;;16.89;96.46;100226.28;694144;28;1918;-54
2021/07/14 00:55:05;;;;;;;10.43;7.10;;;;;;;16.90;96.50;100230.66;694231;28;1403;-52
2021/07/14 00:55:26;;;;;;;10.88;7.13;;;;;;;16.89;96.49;100229.81;696649;28;1868;-55
2021/07/14 00:55:46;;;;;;;8.80;6.90;;;;;;;16.90;96.21;100226.25;697683;28;827;-54
2021/07/14 00:56:07;;;;;;;8.20;6.38;;;;;;;16.93;96.29;100228.75;696135;28;5873;-55
2021/07/14 00:56:28;;;;;;;7.93;6.20;;;;;;;17.00;95.77;100232.91;696784;28;1090;-55
2021/07/14 00:56:49;;;;;;;6.80;6.03;;;;;;;17.05;95.74;100230.06;695960;28;1793;-52
2021/07/14 00:57:10;;;;;;;8.23;6.30;;;;;;;17.05;95.81;100231.88;696813;28;978;-52
2021/07/14 00:57:31;;;;;;;8.87;6.80;;;;;;;17.02;96.04;100228.41;694822;28;855;-52
2021/07/14 00:57:52;;;;;;;9.70;7.00;;;;;;;17.02;96.25;100230.19;691811;28;3405;-52
2021/07/14 00:58:12;;;;;;;8.63;6.93;;;;;;;17.02;96.22;100232.84;694123;28;1747;-56
2021/07/14 00:58:33;;;;;;;11.77;6.63;;;;;;;16.99;96.33;100231.19;692739;28;1621;-51
2021/07/14 00:58:55;;;;;;;9.82;6.68;;;;;;;16.99;96.38;100236.47;692664;28;4602;-54
2021/07/14 00:59:15;;;;;;;8.50;6.50;;;;;;;16.99;95.66;100236.47;693928;28;1900;-53
2021/07/14 00:59:36;;;;;;;8.60;6.33;;;;;;;16.97;95.86;100235.63;694239;28;2119;-54
2021/07/14 00:59:56;;;;;;;9.30;6.67;;;;;;;16.97;96.08;100238.28;693650;28;1727;-52
2021/07/14 01:00:17;;;;;;;11.03;6.90;;;;;;;16.95;96.18;100232.22;694881;28;1278;-54
2021/07/14 01:00:37;;;;;;;11.50;7.30;;;;;;;16.92;96.15;100237.63;694604;28;1171;-55
2021/07/14 01:00:58;;;;;;;9.03;6.73;;;;;;;16.91;96.31;100233.25;695433;28;946;-56
2021/07/14 01:01:19;;;;;;;9.07;6.95;;;;;;;16.91;96.46;100243.81;696133;28;975;-53
2021/07/14 01:01:40;;;;;;;8.82;6.65;;;;;;;16.91;96.33;100238.53;695993;28;834;-55
2021/07/14 01:02:02;;;;;;;9.20;6.25;;;;;;;16.94;96.19;100251.59;693854;28;4449;-53
2021/07/14 01:02:25;;;;;;;7.82;6.15;;;;;;;16.94;96.22;100248.13;694856;28;3515;-54
2021/07/14 01:02:46;;;;;;;7.82;6.60;;;;;;;16.91;96.18;100241.16;693280;28;1690;-54
2021/07/14 01:03:06;;;;;;;8.23;6.70;;;;;;;16.93;95.97;100247.22;693809;28;1974;-54
2021/07/14 01:03:31;;;;;;;7.50;6.53;;;;;;;16.94;96.28;100245.47;694254;28;1676;-53
2021/07/14 01:03:58;;;;;;;7.40;6.28;;;;;;;16.95;95.83;100240.13;694134;28;1858;-55
2021/07/14 01:04:28;;;;;;;7.18;5.70;;;;;;;16.97;95.82;100245.34;694080;28;1008;-53
2021/07/14 01:05:20;;;;;;;8.82;6.53;;;;;;;16.96;95.83;100241.84;694070;28;1128;-54
2021/07/14 01:05:46;;;;;;;7.00;5.72;;;;;;;17.01;95.71;100245.16;692302;28;4950;-55
2021/07/14 01:06:15;;;;;;;7.60;5.70;;;;;;;17.02;95.61;100243.41;694355;28;1646;-52
2021/07/14 01:06:47;;;;;;;8.50;6.22;;;;;;;17.00;95.60;100243.47;694496;28;1911;-55
2021/07/14 01:07:13;;;;;;;7.47;6.13;;;;;;;17.04;95.44;100243.34;694021;28;1499;-53
2021/07/14 01:07:46;;;;;;;7.75;5.88;;;;;;;17.03;95.80;100242.50;694477;28;1732;-55
2021/07/14 01:08:27;;;;;;;9.45;6.07;;;;;;;17.03;95.46;100239.84;693787;28;1657;-57
2021/07/14 01:09:07;;;;;;;6.95;5.53;;;;;;;17.04;95.78;100235.41;692612;28;1803;-54
2021/07/14 01:09:35;;;;;;;6.35;5.60;;;;;;;17.05;95.91;100238.00;693057;28;4382;-55
2021/07/14 01:10:06;;;;;;;9.60;5.63;;;;;;;17.08;95.37;100237.03;692844;28;4868;-54
2021/07/14 01:10:33;;;;;;;8.32;4.95;;;;;;;17.12;94.87;100228.06;692315;28;1720;-56
2021/07/14 01:11:13;;;;;;;6.50;5.00;;;;;;;17.13;95.47;100221.88;693442;28;4346;-53
2021/07/14 01:11:36;;;;;;;11.02;5.57;;;;;;;17.10;95.66;100229.88;693344;28;1743;-52
2021/07/14 01:12:06;;;;;;;7.10;5.18;;;;;;;17.10;95.23;100227.25;692796;28;1792;-50
2021/07/14 01:12:39;;;;;;;6.68;5.07;;;;;;;17.09;95.30;100228.19;692982;28;1215;-53
2021/07/14 01:13:05;;;;;;;6.63;5.25;;;;;;;17.09;95.58;100228.19;693956;28;1301;-53
2021/07/14 01:14:22;;;;;;;7.45;5.45;;;;;;;17.02;95.65;100224.91;694212;28;848;-51
2021/07/14 01:15:08;;;;;;;7.85;5.38;;;;;;;16.97;95.95;100230.34;691241;28;5235;-53
2021/07/14 01:16:00;;;;;;;7.35;5.20;;;;;;;16.92;95.92;100232.34;694104;28;1489;-54
2021/07/14 01:16:25;;;;;;;7.55;5.20;;;;;;;16.91;96.27;100235.03;694674;28;1589;-53
2021/07/14 01:16:46;;;;;;;7.60;5.05;;;;;;;16.92;95.92;100234.97;694361;28;948;-51
2021/07/14 01:17:11;;;;;;;6.85;4.70;;;;;;;16.92;95.79;100232.34;694304;28;1438;-52
2021/07/14 01:17:37;;;;;;;5.93;4.65;;;;;;;16.92;95.79;100231.44;694384;28;874;-52
2021/07/14 01:18:15;;;;;;;5.93;4.22;;;;;;;16.97;95.68;100238.28;694560;28;1069;-55
2021/07/14 01:18:50;;;;;;;6.88;4.90;;;;;;;16.93;95.82;100234.03;693538;28;4602;-54
2021/07/14 01:19:36;;;;;;;6.53;4.88;;;;;;;16.92;95.76;100234.97;693563;28;1733;-54
2021/07/14 01:20:18;;;;;;;7.22;4.53;;;;;;;16.96;95.80;100239.22;684882;28;4669;-53
2021/07/14 01:20:48;;;;;;;7.35;5.20;;;;;;;16.95;96.07;100236.66;685632;28;1757;-55
2021/07/14 01:21:17;;;;;;;8.95;4.78;;;;;;;16.93;96.12;100228.75;693742;28;1027;-55
2021/07/14 01:21:42;;;;;;;8.93;4.35;;;;;;;16.94;96.18;100240.19;697546;28;907;-55
2021/07/14 01:22:12;;;;;;;6.50;4.57;;;;;;;16.92;95.71;100237.63;696034;28;3280;-51
2021/07/14 01:22:52;;;;;;;8.20;4.25;;;;;;;16.94;95.73;100235.75;693867;28;1747;-54
2021/07/14 01:23:34;;;;;;;7.00;4.38;;;;;;;16.89;96.30;100229.81;692822;28;4779;-55
2021/07/14 01:24:06;;;;;;;7.25;4.55;;;;;;;16.87;96.13;100223.69;694069;28;1569;-54
2021/07/14 01:24:43;;;;;;;6.85;4.40;;;;;;;16.85;96.24;100226.38;692423;28;1496;-52
2021/07/14 01:25:04;;;;;;;6.45;4.50;;;;;;;16.83;96.42;100219.44;693626;28;1438;-52
2021/07/14 01:25:50;;;;;;;7.20;4.90;;;;;;;16.81;96.58;100219.50;694545;28;930;-54
2021/07/14 01:26:39;;;;;;;7.22;4.53;;;;;;;16.80;96.38;100224.84;685510;28;4768;-55
2021/07/14 01:27:06;;;;;;;6.53;4.68;;;;;;;16.84;96.17;100221.16;695718;28;997;-53
2021/07/14 01:27:34;;;;;;;7.47;4.40;;;;;;;16.84;96.26;100213.25;693643;28;4603;-53
2021/07/14 01:27:58;;;;;;;5.60;4.15;;;;;;;16.87;96.00;100220.19;693119;28;1761;-54
2021/07/14 01:28:22;;;;;;;4.80;3.80;;;;;;;16.89;95.92;100213.09;693444;28;1493;-55
2021/07/14 01:28:45;;;;;;;6.47;4.10;;;;;;;16.91;96.00;100219.19;693327;28;1547;-55
2021/07/14 01:29:08;;;;;;;6.70;4.22;;;;;;;16.92;95.69;100213.84;692960;28;4574;-51
2021/07/14 01:29:30;;;;;;;6.63;3.90;;;;;;;16.96;95.78;100220.75;694273;28;1847;-53
2021/07/14 01:29:54;;;;;;;5.65;3.90;;;;;;;16.97;95.56;100219.78;694120;28;1102;-55
2021/07/14 01:30:15;;;;;;;5.60;4.00;;;;;;;16.98;95.30;100213.59;692701;28;2898;-54
2021/07/14 01:30:36;;;;;;;5.30;4.15;;;;;;;17.00;95.24;100219.69;693461;28;1245;-54
2021/07/14 01:30:57;;;;;;;5.25;4.00;;;;;;;17.02;95.29;100215.22;694529;28;1408;-53
2021/07/14 01:31:20;;;;;;;6.20;4.10;;;;;;;17.03;95.31;100213.44;694515;28;1339;-52
2021/07/14 01:31:45;;;;;;;6.20;4.25;;;;;;;16.98;95.59;100223.31;693847;28;4172;-53
2021/07/14 01:32:07;;;;;;;7.75;4.60;;;;;;;16.92;95.86;100216.50;692489;28;4473;-51
2021/07/14 01:32:30;;;;;;;7.78;4.63;;;;;;;16.91;95.99;100213.91;692997;28;1945;-52
2021/07/14 01:32:53;;;;;;;7.55;4.53;;;;;;;16.89;95.92;100216.63;693307;28;1357;-54
2021/07/14 01:33:17;;;;;;;6.65;4.40;;;;;;;16.87;95.98;100213.13;693241;28;1522;-53
2021/07/14 01:33:41;;;;;;;6.63;4.43;;;;;;;16.85;96.04;100214.97;697057;28;1435;-54
2021/07/14 01:34:06;;;;;;;7.03;4.70;;;;;;;16.84;95.90;100213.25;696170;28;1461;-53
2021/07/14 01:34:29;;;;;;;6.45;4.70;;;;;;;16.82;96.07;100215.06;696711;28;1914;-54
2021/07/14 01:35:02;;;;;;;8.05;4.53;;;;;;;16.81;96.40;100213.38;695444;28;4514;-53
2021/07/14 01:35:29;;;;;;;7.53;4.85;;;;;;;16.80;96.15;100214.28;696546;28;895;-54
2021/07/14 01:35:54;;;;;;;6.35;4.88;;;;;;;16.80;96.45;100217.78;693911;28;1031;-53
2021/07/14 01:36:19;;;;;;;7.40;5.07;;;;;;;16.79;96.69;100220.47;693374;28;4071;-52
2021/07/14 01:36:43;;;;;;;7.85;5.15;;;;;;;16.78;96.64;100219.63;694046;28;1721;-53
2021/07/14 01:37:06;;;;;;;6.68;5.10;;;;;;;16.78;96.63;100216.09;693639;28;1993;-54
2021/07/14 01:37:27;;;;;;;8.35;5.20;;;;;;;16.78;96.68;100214.34;693091;28;1645;-55
2021/07/14 01:37:49;;;;;;;8.02;5.20;;;;;;;16.77;96.57;100206.50;693476;28;1561;-51
2021/07/14 01:38:11;;;;;;;6.22;5.00;;;;;;;16.78;96.57;100216.09;695468;28;4682;-54
2021/07/14 01:38:35;;;;;;;7.65;5.47;;;;;;;16.78;96.67;100209.06;697137;28;1445;-53
2021/07/14 01:38:57;;;;;;;8.82;5.43;;;;;;;16.76;96.73;100207.41;695006;28;1990;-54
2021/07/14 01:39:19;;;;;;;8.13;5.40;;;;;;;16.77;96.75;100203.84;693848;28;1817;-54
2021/07/14 01:39:43;;;;;;;7.15;5.38;;;;;;;16.78;96.55;100205.53;693872;28;891;-51
2021/07/14 01:40:06;;;;;;;6.97;5.03;;;;;;;16.79;96.43;100204.63;693345;28;1196;-52
2021/07/14 01:40:28;;;;;;;8.68;4.90;;;;;;;16.77;96.34;100199.41;694589;28;3102;-53
2021/07/14 01:40:48;;;;;;;7.53;5.32;;;;;;;16.78;96.55;100198.50;692542;28;4273;-55
2021/07/14 01:41:11;;;;;;;7.65;5.20;;;;;;;16.78;96.22;100197.63;693167;28;4436;-55
2021/07/14 01:41:36;;;;;;;7.53;4.97;;;;;;;16.79;96.46;100196.72;693640;28;1875;-54
2021/07/14 01:42:00;;;;;;;7.00;5.25;;;;;;;16.77;96.67;100195.94;693737;28;1933;-53
2021/07/14 01:42:27;;;;;;;7.47;5.45;;;;;;;16.78;96.44;100192.34;693239;28;2060;-54
2021/07/14 01:42:52;;;;;;;9.05;5.13;;;;;;;16.78;96.56;100193.22;696656;28;1531;-51
2021/07/14 01:43:13;;;;;;;8.60;5.28;;;;;;;16.78;96.71;100195.00;696479;28;1782;-55
2021/07/14 01:43:43;;;;;;;8.02;5.55;;;;;;;16.77;96.49;100191.50;696520;28;1851;-57
2021/07/14 01:44:04;;;;;;;8.25;5.75;;;;;;;16.78;96.55;100195.00;692655;28;4401;-53
2021/07/14 01:44:27;;;;;;;7.40;5.60;;;;;;;16.76;96.75;100195.06;694070;28;854;-55
2021/07/14 01:44:49;;;;;;;7.20;5.43;;;;;;;16.77;96.74;100193.28;693841;28;1743;-55
2021/07/14 01:45:12;;;;;;;8.57;5.50;;;;;;;16.76;96.87;100186.28;693181;28;1840;-53
2021/07/14 01:45:35;;;;;;;8.40;5.60;;;;;;;16.76;96.58;100189.78;693406;28;1701;-54
2021/07/14 01:45:56;;;;;;;6.95;5.28;;;;;;;16.77;96.55;100188.00;693353;28;1990;-54
2021/07/14 01:46:18;;;;;;;6.45;4.75;;;;;;;16.78;96.37;100193.22;694028;28;1494;-52
2021/07/14 01:46:41;;;;;;;8.52;5.22;;;;;;;16.79;96.43;100186.16;693644;28;2449;-52
2021/07/14 01:47:02;;;;;;;8.35;5.32;;;;;;;16.78;96.61;100187.06;692871;28;4417;-52
2021/07/14 01:47:23;;;;;;;8.47;5.27;;;;;;;16.77;96.54;100182.75;694081;28;2112;-54
2021/07/14 01:47:49;;;;;;;9.27;5.43;;;;;;;16.77;96.53;100188.00;694505;28;1857;-52
2021/07/14 01:48:11;;;;;;;9.93;5.55;;;;;;;16.77;96.32;100191.50;693296;28;1675;-54
2021/07/14 01:48:33;;;;;;;8.43;5.50;;;;;;;16.77;96.33;100190.66;694070;28;1674;-52
2021/07/14 01:48:56;;;;;;;9.52;5.72;;;;;;;16.78;96.24;100190.59;692410;28;1949;-54
2021/07/14 01:49:18;;;;;;;7.72;5.50;;;;;;;16.78;96.37;100187.06;693808;28;3695;-53
2021/07/14 01:49:42;;;;;;;7.60;5.43;;;;;;;16.78;96.56;100192.34;693918;28;4435;-55
2021/07/14 01:50:04;;;;;;;8.00;5.70;;;;;;;16.77;96.75;100188.00;692673;28;4500;-55
2021/07/14 01:50:28;;;;;;;9.98;5.55;;;;;;;16.75;96.72;100193.31;693653;28;1460;-52
2021/07/14 01:50:50;;;;;;;11.23;5.80;;;;;;;16.75;96.84;100195.13;693918;28;2202;-54
2021/07/14 01:51:12;;;;;;;10.52;5.45;;;;;;;16.74;96.88;100191.63;695210;28;1829;-53
2021/07/14 01:51:37;;;;;;;9.63;5.65;;;;;;;16.74;97.08;100194.25;694466;28;1949;-54
2021/07/14 01:52:03;;;;;;;8.38;5.50;;;;;;;16.73;96.96;100194.31;694187;28;1611;-51
2021/07/14 01:52:27;;;;;;;8.80;5.68;;;;;;;16.73;96.90;100195.19;693502;28;1637;-52
2021/07/14 01:52:50;;;;;;;7.45;5.30;;;;;;;16.72;96.82;100195.25;693296;28;1104;-54
2021/07/14 01:53:10;;;;;;;9.65;5.35;;;;;;;16.72;97.15;100184.69;693866;28;4855;-51
2021/07/14 01:53:33;;;;;;;10.57;5.68;;;;;;;16.72;97.03;100192.59;694280;28;1024;-51
2021/07/14 01:53:54;;;;;;;8.77;5.93;;;;;;;16.72;97.13;100195.25;693090;28;4420;-56
2021/07/14 01:54:18;;;;;;;10.03;5.83;;;;;;;16.72;97.24;100196.09;693653;28;1921;-53
2021/07/14 01:54:41;;;;;;;9.95;5.90;;;;;;;16.71;96.90;100196.16;694635;28;1918;-53
2021/07/14 01:55:05;;;;;;;9.68;6.03;;;;;;;16.72;97.22;100197.88;693672;28;1208;-55
2021/07/14 01:55:28;;;;;;;9.15;5.80;;;;;;;16.71;96.92;100197.00;695037;28;1608;-52
2021/07/14 01:55:49;;;;;;;8.30;5.78;;;;;;;16.71;97.08;100190.88;693876;28;1348;-54
2021/07/14 01:56:11;;;;;;;9.97;6.00;;;;;;;16.71;97.13;100194.34;693856;28;4498;-56
2021/07/14 01:56:35;;;;;;;9.25;6.00;;;;;;;16.71;97.27;100193.50;694528;28;1115;-52
2021/07/14 01:56:58;;;;;;;11.23;5.90;;;;;;;16.72;97.18;100197.88;693367;28;4610;-56
2021/07/14 01:57:21;;;;;;;10.80;5.93;;;;;;;16.70;97.32;100195.31;693758;28;1951;-53
2021/07/14 01:57:42;;;;;;;8.98;5.70;;;;;;;16.71;97.24;100197.00;693571;28;1797;-57
2021/07/14 01:58:04;;;;;;;11.40;5.75;;;;;;;16.71;97.35;100199.63;695597;28;1518;-55
2021/07/14 01:58:27;;;;;;;10.43;6.00;;;;;;;16.69;97.40;100197.06;695116;28;1526;-56
2021/07/14 01:58:49;;;;;;;8.00;5.90;;;;;;;16.70;97.39;100195.31;697199;28;1655;-52
2021/07/14 01:59:10;;;;;;;9.88;5.70;;;;;;;16.69;97.28;100194.41;696571;28;4800;-54
2021/07/14 01:59:35;;;;;;;11.85;6.03;;;;;;;16.69;97.36;100191.78;698176;28;1583;-53
2021/07/14 01:59:56;;;;;;;11.40;5.97;;;;;;;16.68;97.51;100192.72;694239;28;1431;-52
2021/07/14 02:00:16;;;;;;;11.02;5.72;;;;;;;16.69;97.58;100196.22;695209;28;935;-52
2021/07/14 02:00:37;;;;;;;11.68;5.95;;;;;;;16.67;97.38;100191.00;691706;28;1841;-52
2021/07/14 02:00:58;;;;;;;9.17;5.60;;;;;;;16.66;97.63;100194.53;691504;28;1320;-52
2021/07/14 02:01:20;;;;;;;8.00;5.35;;;;;;;16.65;97.65;100195.44;691209;28;3949;-55
2021/07/14 02:01:42;;;;;;;8.63;5.72;;;;;;;16.65;97.63;100199.88;692130;28;1806;-54
2021/07/14 02:02:04;;;;;;;9.73;6.00;;;;;;;16.65;97.74;100197.25;692191;28;4672;-55